Amity, Georgia
Current Conditions -  °F | °C
As of 3:55 AM on Sunday 21 Dec 2014 (Local Time) from KHQU Reporting Station
Overcast Overcast  
Wind Chill: 49°   Ceiling: 500
Heat Index: 49°   Visibility: 2.5mi
Dew Point: 49°   Wind: 3mph
Humidity: 100%   Direction: 60°ENE
Pressure: 30.25"   Gusts: NA
Location:  33.7816°N, 82.4511°W
Report Text: KHQU 210855Z AUTO 06003KT 2 1/2SM BKN005 OVC010 09/09 A3025 RMK AO1 T00920092
Loading
Personal Weather Stations






























Interactive Weather Map New forecast layout! Learn more

10-Day Weather Forecast

Advertisements
Track Severe Weather on mobile